Time;durP1;ratioP1;P1;durP2;ratioP2;P2;SDS_P1;SDS_P2;PMS_P1;PMS_P2;Temp;Humidity;BMP_temperature;BMP_pressure;BME280_temperature;BME280_humidity;BME280_pressure;Samples;Min_cycle;Max_cycle;Signal;HPM_P1;HPM_P2
2024/02/11 00:01:51;;;;;;;7.83;4.07;;;8.60;99.90;;;;;;4940370;29;20523;-81
2024/02/11 00:04:18;;;;;;;6.97;4.00;;;8.60;99.90;;;;;;4939833;29;20447;-81
2024/02/11 00:06:46;;;;;;;3.67;2.83;;;8.60;99.90;;;;;;4939916;29;20482;-81
2024/02/11 00:09:13;;;;;;;7.23;3.50;;;8.60;99.90;;;;;;4939853;29;20493;-81
2024/02/11 00:11:40;;;;;;;7.27;4.10;;;8.60;99.90;;;;;;4939463;29;20474;-81
2024/02/11 00:14:07;;;;;;;7.20;4.33;;;8.60;99.90;;;;;;4939628;29;20454;-81
2024/02/11 00:16:35;;;;;;;6.03;2.80;;;8.60;99.90;;;;;;4939697;29;20451;-81
2024/02/11 00:19:01;;;;;;;5.53;2.97;;;8.50;99.90;;;;;;4939133;29;20992;-81
2024/02/11 00:21:28;;;;;;;4.00;3.00;;;8.50;99.90;;;;;;4939417;29;20447;-81
2024/02/11 00:23:55;;;;;;;5.20;3.47;;;8.60;99.90;;;;;;4939150;29;20450;-81
2024/02/11 00:26:21;;;;;;;8.30;3.57;;;8.60;99.90;;;;;;4939367;29;20483;-81
2024/02/11 00:28:48;;;;;;;7.07;3.40;;;8.60;99.90;;;;;;4939204;29;20447;-82
2024/02/11 00:31:15;;;;;;;21.73;5.83;;;8.60;99.90;;;;;;4939255;29;20442;-82
2024/02/11 00:33:44;;;;;;;5.73;3.53;;;8.60;99.90;;;;;;4939086;29;20474;-82
2024/02/11 00:36:11;;;;;;;8.07;3.57;;;8.60;99.90;;;;;;4939232;29;20455;-82
2024/02/11 00:38:39;;;;;;;11.53;4.00;;;8.60;99.90;;;;;;4939024;29;20444;-82
2024/02/11 00:41:06;;;;;;;10.30;4.30;;;8.60;99.90;;;;;;4939062;29;20510;-82
2024/02/11 00:43:37;;;;;;;3.73;2.67;;;8.50;99.90;;;;;;4939301;29;20453;-82
2024/02/11 00:46:04;;;;;;;3.80;2.77;;;8.50;99.90;;;;;;4939106;29;20894;-82
2024/02/11 00:48:31;;;;;;;6.90;4.20;;;8.60;99.90;;;;;;4939280;29;20443;-82
2024/02/11 00:50:59;;;;;;;3.07;2.17;;;8.60;99.90;;;;;;4938939;29;20463;-82
2024/02/11 00:53:25;;;;;;;3.07;2.23;;;8.60;99.90;;;;;;4938598;29;20944;-82
2024/02/11 00:55:52;;;;;;;2.63;2.40;;;8.60;99.90;;;;;;4939029;29;20454;-82
2024/02/11 00:58:20;;;;;;;2.83;2.13;;;10.20;99.90;;;;;;4938527;29;20957;-82
2024/02/11 01:00:46;;;;;;;2.83;2.13;;;8.60;99.90;;;;;;4938675;29;20460;-82
2024/02/11 01:03:13;;;;;;;4.53;3.40;;;8.60;99.90;;;;;;4938564;29;20962;-82
2024/02/11 01:05:42;;;;;;;5.97;2.47;;;8.60;99.90;;;;;;4938289;29;21075;-82
2024/02/11 01:08:11;;;;;;;2.20;1.83;;;8.60;99.90;;;;;;4938669;29;20473;-82
2024/02/11 01:10:38;;;;;;;2.10;1.80;;;8.60;99.90;;;;;;4940777;29;20487;-82
2024/02/11 01:13:05;;;;;;;3.30;1.83;;;8.70;99.90;;;;;;4952291;28;20455;-81
2024/02/11 01:15:32;;;;;;;5.03;2.57;;;8.60;99.90;;;;;;4937868;29;20949;-81
2024/02/11 01:17:59;;;;;;;2.10;1.37;;;8.70;99.90;;;;;;4939199;29;20960;-81
2024/02/11 01:20:26;;;;;;;2.37;2.23;;;8.60;99.90;;;;;;4939757;29;20475;-81
2024/02/11 01:22:54;;;;;;;4.70;2.13;;;8.60;99.90;;;;;;4938776;29;20458;-81
2024/02/11 01:25:22;;;;;;;2.30;1.97;;;8.70;99.90;;;;;;4938328;29;20470;-81
2024/02/11 01:27:50;;;;;;;1.23;1.10;;;8.70;99.90;;;;;;4939110;29;20450;-81
2024/02/11 01:30:19;;;;;;;1.93;1.83;;;8.70;99.90;;;;;;4937924;29;20988;-81
2024/02/11 01:32:46;;;;;;;7.70;3.37;;;8.70;99.90;;;;;;4938215;29;20505;-81
2024/02/11 01:35:14;;;;;;;1.93;1.80;;;8.70;99.90;;;;;;4936923;29;20451;-81
2024/02/11 01:37:41;;;;;;;3.40;1.70;;;8.70;99.90;;;;;;4937828;29;20969;-81
2024/02/11 01:40:12;;;;;;;3.67;2.37;;;8.70;99.90;;;;;;4937564;29;20479;-81
2024/02/11 01:42:40;;;;;;;8.63;3.30;;;8.70;99.90;;;;;;4937823;29;20443;-81
2024/02/11 01:45:08;;;;;;;2.23;1.50;;;8.70;99.90;;;;;;4937399;29;20466;-81
2024/02/11 01:47:36;;;;;;;2.10;1.30;;;8.70;99.90;;;;;;4937604;29;20562;-81
2024/02/11 01:50:08;;;;;;;6.20;2.30;;;8.70;99.90;;;;;;4937459;29;20546;-81
2024/02/11 01:52:36;;;;;;;5.80;1.70;;;8.70;99.90;;;;;;4937676;29;20499;-81
2024/02/11 01:55:03;;;;;;;5.97;1.83;;;8.70;99.90;;;;;;4937700;29;20826;-81
2024/02/11 01:57:30;;;;;;;1.83;1.73;;;8.70;99.90;;;;;;4937565;29;20451;-81
2024/02/11 01:59:59;;;;;;;1.73;1.60;;;8.70;99.90;;;;;;4937506;29;20471;-81
2024/02/11 02:02:29;;;;;;;2.80;1.30;;;8.70;99.90;;;;;;4937514;29;20455;-81
2024/02/11 02:04:56;;;;;;;2.70;1.93;;;8.70;99.90;;;;;;4937346;29;20447;-81
2024/02/11 02:07:22;;;;;;;2.20;1.27;;;8.70;99.90;;;;;;4937268;29;20498;-81
2024/02/11 02:09:52;;;;;;;4.80;2.00;;;8.70;99.90;;;;;;4937474;29;20491;-80
2024/02/11 02:12:20;;;;;;;2.40;1.97;;;8.70;99.90;;;;;;4937224;29;20908;-80
2024/02/11 02:14:47;;;;;;;2.43;2.23;;;8.70;99.90;;;;;;4937005;29;20486;-80
2024/02/11 02:17:16;;;;;;;1.07;0.97;;;8.70;99.90;;;;;;4937282;29;20447;-81
2024/02/11 02:19:42;;;;;;;1.50;1.10;;;8.60;99.90;;;;;;4937336;29;20467;-81
2024/02/11 02:22:12;;;;;;;0.70;0.70;;;8.70;99.90;;;;;;4937442;29;20431;-81
2024/02/11 02:24:38;;;;;;;3.50;1.27;;;8.60;99.90;;;;;;4937266;29;20455;-81
2024/02/11 02:27:06;;;;;;;0.80;0.80;;;8.60;99.90;;;;;;4937063;29;20482;-81
2024/02/11 02:29:33;;;;;;;0.60;0.60;;;8.50;99.90;;;;;;4936836;29;20530;-81
2024/02/11 02:31:59;;;;;;;0.70;0.70;;;8.50;99.90;;;;;;4936824;29;20436;-80
2024/02/11 02:34:27;;;;;;;0.50;0.50;;;8.40;99.90;;;;;;4936767;29;20439;-81
2024/02/11 02:36:54;;;;;;;0.83;0.60;;;8.30;99.90;;;;;;4936939;29;20455;-81
2024/02/11 02:39:22;;;;;;;0.50;0.40;;;8.30;99.90;;;;;;4936761;29;20839;-81
2024/02/11 02:41:49;;;;;;;0.60;0.40;;;8.30;99.90;;;;;;4936949;29;20447;-81
2024/02/11 02:44:16;;;;;;;0.30;0.30;;;8.20;99.90;;;;;;4936762;29;20797;-81
2024/02/11 02:46:42;;;;;;;0.30;0.30;;;8.20;99.90;;;;;;4936383;29;20483;-81
2024/02/11 02:49:09;;;;;;;1.07;0.47;;;8.10;99.90;;;;;;4936492;29;21018;-81
2024/02/11 02:51:36;;;;;;;0.30;0.30;;;8.10;99.90;;;;;;4936776;29;20454;-81
2024/02/11 02:54:03;;;;;;;0.30;0.20;;;8.00;99.90;;;;;;4936462;29;20439;-81
2024/02/11 02:56:34;;;;;;;0.30;0.23;;;7.80;99.90;;;;;;4936674;29;20442;-81
2024/02/11 02:59:05;;;;;;;0.30;0.20;;;7.70;99.90;;;;;;4936934;29;20482;-81
2024/02/11 03:01:32;;;;;;;0.30;0.20;;;7.50;99.90;;;;;;4936564;29;20798;-81
2024/02/11 03:04:01;;;;;;;0.30;0.20;;;7.50;99.90;;;;;;4936197;29;20439;-81
2024/02/11 03:06:27;;;;;;;0.30;0.20;;;7.40;99.90;;;;;;4936472;29;20489;-81
2024/02/11 03:08:54;;;;;;;0.30;0.20;;;7.20;99.90;;;;;;4936539;29;20479;-81
2024/02/11 03:11:21;;;;;;;0.30;0.20;;;7.20;99.90;;;;;;4936104;29;20486;-81
2024/02/11 03:13:49;;;;;;;0.30;0.20;;;7.10;99.90;;;;;;4936180;29;20929;-81
2024/02/11 03:16:16;;;;;;;0.70;0.30;;;6.90;99.90;;;;;;4936290;29;20462;-81
2024/02/11 03:18:42;;;;;;;0.30;0.20;;;6.80;99.90;;;;;;4936014;29;20830;-81
2024/02/11 03:21:09;;;;;;;0.30;0.20;;;6.80;99.90;;;;;;4936148;29;20446;-81
2024/02/11 03:23:37;;;;;;;0.30;0.20;;;6.80;99.90;;;;;;4936497;29;20455;-81
2024/02/11 03:26:04;;;;;;;0.30;0.20;;;6.80;99.90;;;;;;4940902;29;20494;-80
2024/02/11 03:28:34;;;;;;;0.30;0.30;;;6.80;99.90;;;;;;4943529;29;20436;-81
2024/02/11 03:31:01;;;;;;;0.30;0.20;;;6.70;99.90;;;;;;4936036;29;20474;-81
2024/02/11 03:33:28;;;;;;;0.30;0.20;;;6.70;99.90;;;;;;4936367;29;20459;-82
2024/02/11 03:35:55;;;;;;;0.30;0.20;;;6.60;99.90;;;;;;4936134;29;20514;-81
2024/02/11 03:38:23;;;;;;;0.30;0.30;;;6.50;99.90;;;;;;4936237;29;20805;-81
2024/02/11 03:40:52;;;;;;;0.30;0.20;;;6.40;99.90;;;;;;4936111;29;20474;-82
2024/02/11 03:43:19;;;;;;;0.30;0.20;;;6.40;99.90;;;;;;4936353;29;20463;-81
2024/02/11 03:45:46;;;;;;;0.30;0.20;;;6.50;99.90;;;;;;4936221;29;20550;-81
2024/02/11 03:48:14;;;;;;;0.30;0.20;;;6.40;99.90;;;;;;4936334;29;21010;-81
2024/02/11 03:50:41;;;;;;;0.30;0.20;;;6.40;99.90;;;;;;4936030;29;20471;-81
2024/02/11 03:53:08;;;;;;;0.30;0.30;;;6.30;99.90;;;;;;4936415;29;20793;-81
2024/02/11 03:55:37;;;;;;;0.30;0.30;;;6.30;99.90;;;;;;4936397;29;20447;-82
2024/02/11 03:58:04;;;;;;;0.30;0.20;;;6.30;99.90;;;;;;4937990;29;20472;-81
2024/02/11 04:00:31;;;;;;;0.30;0.30;;;6.40;99.90;;;;;;4939498;29;20549;-82
2024/02/11 04:02:58;;;;;;;1.33;0.27;;;6.40;99.90;;;;;;4939586;29;20554;-81
2024/02/11 04:05:28;;;;;;;0.30;0.20;;;6.40;99.90;;;;;;4939688;29;20463;-82
2024/02/11 04:07:55;;;;;;;0.30;0.30;;;6.40;99.90;;;;;;4939373;29;20514;-81
2024/02/11 04:10:23;;;;;;;0.30;0.30;;;6.40;99.90;;;;;;4939047;29;21023;-81
2024/02/11 04:12:52;;;;;;;0.30;0.20;;;6.30;99.90;;;;;;4939319;29;20455;-81
2024/02/11 04:15:22;;;;;;;0.30;0.20;;;6.30;99.90;;;;;;4939078;29;20830;-81
2024/02/11 04:17:49;;;;;;;0.30;0.30;;;6.20;99.90;;;;;;4939586;29;20522;-81
2024/02/11 04:20:23;;;;;;;0.30;0.20;;;6.20;99.90;;;;;;4939220;29;20815;-82
2024/02/11 04:22:54;;;;;;;0.30;0.20;;;6.10;99.90;;;;;;4939154;29;20435;-82
2024/02/11 04:25:22;;;;;;;0.30;0.27;;;6.10;99.90;;;;;;4939476;29;20510;-81
2024/02/11 04:27:49;;;;;;;0.30;0.20;;;6.10;99.90;;;;;;4938872;29;20474;-81
2024/02/11 04:30:19;;;;;;;0.30;0.30;;;6.00;99.90;;;;;;4939001;29;20981;-81
2024/02/11 04:32:47;;;;;;;0.30;0.20;;;6.10;99.90;;;;;;4939015;29;20455;-81
2024/02/11 04:35:15;;;;;;;0.30;0.20;;;6.00;99.90;;;;;;4940138;29;20538;-82
2024/02/11 04:37:46;;;;;;;0.30;0.20;;;6.00;99.90;;;;;;4939577;29;20932;-81
2024/02/11 04:40:16;;;;;;;0.30;0.20;;;6.00;99.90;;;;;;4939062;29;20566;-82
2024/02/11 04:42:44;;;;;;;0.60;0.40;;;6.00;99.90;;;;;;4939250;29;20451;-81
2024/02/11 04:45:15;;;;;;;0.40;0.40;;;6.00;99.90;;;;;;4939024;29;20510;-82
2024/02/11 04:47:45;;;;;;;0.40;0.30;;;6.00;99.90;;;;;;4938708;29;20531;-81
2024/02/11 04:50:15;;;;;;;0.30;0.20;;;6.00;99.90;;;;;;4938854;29;20554;-82
2024/02/11 04:52:48;;;;;;;0.30;0.30;;;5.90;99.90;;;;;;4938715;29;20949;-82
2024/02/11 04:55:18;;;;;;;0.30;0.20;;;5.80;99.90;;;;;;4939147;29;20780;-82
2024/02/11 04:57:45;;;;;;;0.30;0.20;;;5.80;99.90;;;;;;4938624;29;20451;-81
2024/02/11 05:00:23;;;;;;;0.30;0.30;;;5.80;99.90;;;;;;4938415;29;20478;-81
2024/02/11 05:02:51;;;;;;;0.30;0.20;;;5.90;99.90;;;;;;4938399;29;20546;-81
2024/02/11 05:05:19;;;;;;;0.30;0.20;;;5.80;99.90;;;;;;4938449;29;20498;-81
2024/02/11 05:07:46;;;;;;;0.30;0.20;;;5.70;99.90;;;;;;4938467;29;20509;-81
2024/02/11 05:10:13;;;;;;;0.30;0.30;;;5.60;99.90;;;;;;4938190;29;20494;-81
2024/02/11 05:12:42;;;;;;;0.70;0.70;;;5.60;99.90;;;;;;4938261;29;20466;-81
2024/02/11 05:15:10;;;;;;;0.30;0.20;;;5.70;99.90;;;;;;4938224;29;20518;-81
2024/02/11 05:17:38;;;;;;;0.30;0.20;;;5.70;99.90;;;;;;4938249;29;20510;-80
2024/02/11 05:20:12;;;;;;;0.30;0.20;;;5.50;99.90;;;;;;4938070;29;20538;-81
2024/02/11 05:22:44;;;;;;;0.30;0.30;;;5.50;99.90;;;;;;4937783;29;20920;-81
2024/02/11 05:25:19;;;;;;;0.30;0.20;;;5.50;99.90;;;;;;4938210;29;20519;-81
2024/02/11 05:27:51;;;;;;;0.30;0.20;;;5.60;99.90;;;;;;4938079;29;20471;-81
2024/02/11 05:30:18;;;;;;;1.03;0.30;;;5.60;99.90;;;;;;4937936;29;20507;-81
2024/02/11 05:32:47;;;;;;;0.30;0.30;;;5.50;99.90;;;;;;4937746;29;20810;-81
2024/02/11 05:35:15;;;;;;;0.30;0.20;;;5.60;99.90;;;;;;4937922;29;20455;-81
2024/02/11 05:37:42;;;;;;;0.30;0.30;;;5.50;99.90;;;;;;4947969;29;20451;-81
2024/02/11 05:40:10;;;;;;;0.30;0.20;;;5.60;99.90;;;;;;4937681;29;20538;-81
2024/02/11 05:42:39;;;;;;;0.30;0.20;;;5.60;99.90;;;;;;4937878;29;20461;-81
2024/02/11 05:45:10;;;;;;;0.30;0.20;;;5.60;99.90;;;;;;4937664;29;20447;-81
2024/02/11 05:47:37;;;;;;;0.30;0.30;;;5.60;99.90;;;;;;4937581;29;20833;-81
2024/02/11 05:50:06;;;;;;;0.30;0.20;;;5.50;99.90;;;;;;4937453;29;20479;-81
2024/02/11 05:52:33;;;;;;;0.30;0.20;;;5.40;99.90;;;;;;4937557;29;20502;-81
2024/02/11 05:55:00;;;;;;;0.30;0.23;;;5.40;99.90;;;;;;4937488;29;20447;-81
2024/02/11 05:57:28;;;;;;;0.30;0.30;;;5.30;99.90;;;;;;4937185;29;20489;-81
2024/02/11 05:59:55;;;;;;;0.40;0.30;;;5.30;99.90;;;;;;4937610;29;20477;-80
2024/02/11 06:02:23;;;;;;;0.30;0.20;;;5.30;99.90;;;;;;4937787;29;20447;-81
2024/02/11 06:04:52;;;;;;;0.50;0.30;;;5.30;99.90;;;;;;4937393;29;20462;-81
2024/02/11 06:07:19;;;;;;;0.30;0.30;;;5.30;99.90;;;;;;4937392;29;20528;-81
2024/02/11 06:09:46;;;;;;;0.30;0.30;;;5.20;99.90;;;;;;4937219;29;20871;-81
2024/02/11 06:12:12;;;;;;;0.53;0.30;;;5.20;99.90;;;;;;4937275;29;20439;-81
2024/02/11 06:14:39;;;;;;;0.30;0.30;;;5.20;99.90;;;;;;4937316;29;20455;-81
2024/02/11 06:17:06;;;;;;;0.30;0.30;;;5.10;99.90;;;;;;4937537;29;20447;-81
2024/02/11 06:19:35;;;;;;;0.30;0.30;;;5.10;99.90;;;;;;4937371;29;20498;-81
2024/02/11 06:22:02;;;;;;;1.70;0.40;;;5.10;99.90;;;;;;4937096;29;20466;-81
2024/02/11 06:24:29;;;;;;;0.40;0.30;;;5.10;99.90;;;;;;4937442;29;20447;-81
2024/02/11 06:26:58;;;;;;;0.67;0.50;;;5.10;99.90;;;;;;4937269;29;20459;-81
2024/02/11 06:29:26;;;;;;;0.30;0.20;;;5.20;99.90;;;;;;4937077;29;20487;-81
2024/02/11 06:31:53;;;;;;;0.93;0.40;;;5.10;99.90;;;;;;4937120;29;20510;-81
2024/02/11 06:34:21;;;;;;;0.40;0.40;;;5.20;99.90;;;;;;4937252;29;20455;-81
2024/02/11 06:36:49;;;;;;;0.30;0.30;;;5.20;99.90;;;;;;4936663;29;21008;-81
2024/02/11 06:39:18;;;;;;;0.30;0.30;;;5.30;99.90;;;;;;4936981;29;20473;-81
2024/02/11 06:41:45;;;;;;;0.40;0.30;;;5.30;99.90;;;;;;4937338;29;20455;-81
2024/02/11 06:44:12;;;;;;;0.47;0.47;;;5.30;99.90;;;;;;4937172;29;20450;-81
2024/02/11 06:46:38;;;;;;;0.37;0.27;;;5.30;99.90;;;;;;4937035;29;20885;-81
2024/02/11 06:49:06;;;;;;;0.30;0.20;;;5.30;99.90;;;;;;4944637;29;20494;-81
2024/02/11 06:51:32;;;;;;;0.30;0.30;;;5.30;99.90;;;;;;4944802;29;20499;-81
2024/02/11 06:54:00;;;;;;;0.77;0.40;;;5.30;99.90;;;;;;4948566;29;20447;-81
2024/02/11 06:56:27;;;;;;;0.40;0.40;;;5.30;99.90;;;;;;4945259;29;20443;-81
2024/02/11 06:58:56;;;;;;;0.30;0.30;;;5.30;99.90;;;;;;4945216;29;20546;-81
2024/02/11 07:01:23;;;;;;;0.37;0.37;;;5.30;99.90;;;;;;4946305;29;20937;-81
2024/02/11 07:03:51;;;;;;;0.30;0.20;;;5.30;99.90;;;;;;4945880;29;20483;-81
2024/02/11 07:06:18;;;;;;;0.30;0.30;;;5.20;99.90;;;;;;4945403;29;20881;-81
2024/02/11 07:08:45;;;;;;;0.30;0.20;;;5.20;99.90;;;;;;4942671;29;20487;-81
2024/02/11 07:11:16;;;;;;;0.30;0.30;;;5.20;99.90;;;;;;4942011;29;20493;-81
2024/02/11 07:13:43;;;;;;;0.90;0.60;;;5.20;99.90;;;;;;4942094;29;20435;-81
2024/02/11 07:16:10;;;;;;;0.40;0.40;;;5.20;99.90;;;;;;4942345;29;20450;-80
2024/02/11 07:18:38;;;;;;;0.73;0.73;;;5.20;99.90;;;;;;4941544;29;20440;-81
2024/02/11 07:21:05;;;;;;;0.40;0.30;;;5.20;99.90;;;;;;4941586;29;20451;-81
2024/02/11 07:23:32;;;;;;;0.90;0.40;;;5.30;99.90;;;;;;4941486;29;20458;-81
2024/02/11 07:25:59;;;;;;;0.90;0.40;;;5.20;99.90;;;;;;4941663;29;20447;-81
2024/02/11 07:28:27;;;;;;;2.13;0.63;;;5.20;99.90;;;;;;4940372;29;20474;-80
2024/02/11 07:30:54;;;;;;;1.80;0.57;;;5.20;99.90;;;;;;4940651;29;20482;-80
2024/02/11 07:33:20;;;;;;;1.53;0.40;;;5.20;99.90;;;;;;4943162;29;20451;-80
2024/02/11 07:35:47;;;;;;;0.73;0.73;;;5.20;99.90;;;;;;4944863;29;20462;-80
2024/02/11 07:38:14;;;;;;;0.40;0.37;;;5.20;99.90;;;;;;4944498;29;20501;-80
2024/02/11 07:40:41;;;;;;;0.50;0.43;;;5.20;99.90;;;;;;4944630;29;20494;-80
2024/02/11 07:43:09;;;;;;;1.00;0.80;;;5.30;99.90;;;;;;4944910;29;20534;-81
2024/02/11 07:45:41;;;;;;;1.23;0.60;;;5.30;99.90;;;;;;4944747;29;20451;-80
2024/02/11 07:48:08;;;;;;;6.00;0.83;;;5.40;99.90;;;;;;4956988;28;20482;-80
2024/02/11 07:50:36;;;;;;;0.50;0.50;;;5.40;99.90;;;;;;4940901;29;20838;-80
2024/02/11 07:53:04;;;;;;;0.60;0.60;;;5.50;99.90;;;;;;4942207;29;20525;-81
2024/02/11 07:55:33;;;;;;;1.57;0.90;;;5.50;99.90;;;;;;4942414;29;20869;-80
2024/02/11 07:58:02;;;;;;;1.90;0.60;;;5.50;99.90;;;;;;4942097;29;20458;-80
2024/02/11 08:00:31;;;;;;;0.67;0.67;;;5.60;99.90;;;;;;4941820;29;20518;-80
2024/02/11 08:02:59;;;;;;;0.80;0.67;;;5.60;99.90;;;;;;4942618;29;20459;-80
2024/02/11 08:05:26;;;;;;;0.40;0.33;;;5.60;99.90;;;;;;4943434;29;20439;-80
2024/02/11 08:07:53;;;;;;;1.07;0.97;;;5.60;99.90;;;;;;4946004;29;20479;-80
2024/02/11 08:10:21;;;;;;;15.90;1.30;;;5.70;99.90;;;;;;4944897;29;20485;-80
2024/02/11 08:12:48;;;;;;;0.70;0.60;;;5.70;99.90;;;;;;4943737;29;20964;-80
2024/02/11 08:15:15;;;;;;;0.60;0.60;;;5.80;99.90;;;;;;4944091;29;20458;-80
2024/02/11 08:17:42;;;;;;;1.67;0.90;;;5.90;99.90;;;;;;4944266;29;20807;-80
2024/02/11 08:20:15;;;;;;;2.30;0.70;;;6.00;99.90;;;;;;4943299;29;20471;-80
2024/02/11 08:22:42;;;;;;;2.83;1.70;;;6.00;99.90;;;;;;4943661;29;20442;-80
2024/02/11 08:25:10;;;;;;;0.53;0.53;;;6.00;99.90;;;;;;4943540;29;20451;-80
2024/02/11 08:27:38;;;;;;;1.00;0.60;;;6.10;99.90;;;;;;4942423;29;20474;-80
2024/02/11 08:30:07;;;;;;;0.70;0.70;;;6.20;99.90;;;;;;4940487;29;20564;-79
2024/02/11 08:32:35;;;;;;;2.57;0.83;;;6.40;99.90;;;;;;4941557;29;20466;-80
2024/02/11 08:35:02;;;;;;;0.80;0.40;;;6.30;99.90;;;;;;4939325;29;20450;-77
2024/02/11 08:37:30;;;;;;;0.80;0.40;;;6.60;99.90;;;;;;4938687;29;20448;-78
2024/02/11 08:39:58;;;;;;;22.60;2.00;;;6.60;99.90;;;;;;4938758;29;20502;-77
2024/02/11 08:42:24;;;;;;;3.80;0.77;;;6.80;99.90;;;;;;4938989;29;20454;-77
2024/02/11 08:44:52;;;;;;;1.17;1.00;;;6.90;99.90;;;;;;4938210;29;20451;-77
2024/02/11 08:47:18;;;;;;;1.23;0.57;;;7.00;99.90;;;;;;4938568;29;20503;-77
2024/02/11 08:49:48;;;;;;;0.40;0.40;;;7.10;99.90;;;;;;4938428;29;20505;-78
2024/02/11 08:52:15;;;;;;;2.20;0.63;;;7.10;99.90;;;;;;4938627;29;20451;-78
2024/02/11 08:54:43;;;;;;;0.87;0.57;;;7.30;99.90;;;;;;4938601;29;20466;-78
2024/02/11 08:57:10;;;;;;;3.40;1.00;;;7.40;99.90;;;;;;4938505;29;20454;-77
2024/02/11 08:59:41;;;;;;;0.87;0.67;;;7.50;99.90;;;;;;4938418;29;20522;-77
2024/02/11 09:02:10;;;;;;;1.70;1.27;;;7.50;99.90;;;;;;4938514;29;20435;-78
2024/02/11 09:04:38;;;;;;;0.70;0.70;;;7.60;99.90;;;;;;4938378;29;20452;-77
2024/02/11 09:07:06;;;;;;;0.50;0.47;;;7.50;99.90;;;;;;4938465;29;20431;-78
2024/02/11 09:09:34;;;;;;;0.50;0.50;;;7.60;99.90;;;;;;4937770;29;20491;-78
2024/02/11 09:12:03;;;;;;;0.90;0.90;;;7.60;99.90;;;;;;4938453;29;20447;-78
2024/02/11 09:14:31;;;;;;;0.60;0.57;;;7.50;99.90;;;;;;4938411;29;20459;-78
2024/02/11 09:16:59;;;;;;;1.33;0.77;;;7.40;99.90;;;;;;4938282;29;20455;-78
2024/02/11 09:19:26;;;;;;;1.30;0.70;;;7.40;99.90;;;;;;4938192;29;20467;-78
2024/02/11 09:21:53;;;;;;;1.93;1.03;;;7.30;99.90;;;;;;4938436;29;20454;-78
2024/02/11 09:24:20;;;;;;;1.00;0.97;;;7.40;99.90;;;;;;4938105;29;20454;-78
2024/02/11 09:26:47;;;;;;;1.27;0.93;;;7.40;99.90;;;;;;4939458;29;20454;-77
2024/02/11 09:29:15;;;;;;;0.90;0.50;;;7.40;99.90;;;;;;4937765;29;21027;-77
2024/02/11 09:31:42;;;;;;;1.60;1.07;;;7.40;99.90;;;;;;4938182;29;20462;-77
2024/02/11 09:34:08;;;;;;;1.10;1.00;;;7.40;99.90;;;;;;4937903;29;20447;-77
2024/02/11 09:36:35;;;;;;;2.40;0.53;;;7.50;99.90;;;;;;4938239;29;20450;-79
2024/02/11 09:39:03;;;;;;;1.17;0.60;;;7.50;99.90;;;;;;4937859;29;20469;-78
2024/02/11 09:41:30;;;;;;;0.80;0.67;;;7.50;99.90;;;;;;4937711;29;20506;-77
2024/02/11 09:43:58;;;;;;;0.90;0.60;;;7.50;99.90;;;;;;4937718;29;20436;-78
2024/02/11 09:46:29;;;;;;;1.50;1.03;;;7.50;99.90;;;;;;4937805;29;20550;-78
2024/02/11 09:48:58;;;;;;;7.10;0.87;;;7.60;99.90;;;;;;4937629;29;20822;-78
2024/02/11 09:51:29;;;;;;;2.10;1.07;;;7.70;99.90;;;;;;4937848;29;20455;-78
2024/02/11 09:53:59;;;;;;;0.63;0.63;;;7.70;99.90;;;;;;4937715;29;20432;-78
2024/02/11 09:56:26;;;;;;;1.10;0.93;;;7.80;99.90;;;;;;4937052;29;20431;-78
2024/02/11 09:58:53;;;;;;;0.87;0.87;;;7.70;99.90;;;;;;4949817;28;20435;-77
2024/02/11 10:01:21;;;;;;;1.40;0.90;;;7.80;99.90;;;;;;4939584;29;20455;-78
2024/02/11 10:03:53;;;;;;;0.70;0.70;;;7.90;99.90;;;;;;4937055;29;20965;-78
2024/02/11 10:06:27;;;;;;;0.63;0.63;;;7.90;99.90;;;;;;4937198;29;20980;-78
2024/02/11 10:08:54;;;;;;;1.50;1.40;;;7.90;99.90;;;;;;4937032;29;20471;-78
2024/02/11 10:11:23;;;;;;;2.27;1.33;;;8.00;99.90;;;;;;4937072;29;20482;-78
2024/02/11 10:13:50;;;;;;;0.70;0.70;;;8.00;99.90;;;;;;4937599;29;20431;-78
2024/02/11 10:16:17;;;;;;;4.43;0.80;;;7.90;99.90;;;;;;4937376;29;20475;-78
2024/02/11 10:18:44;;;;;;;1.33;1.20;;;8.00;99.90;;;;;;4937740;29;20446;-78
2024/02/11 10:21:12;;;;;;;1.33;0.90;;;7.90;99.90;;;;;;4937383;29;20443;-78
2024/02/11 10:23:40;;;;;;;2.90;1.10;;;7.90;99.90;;;;;;4937755;29;20817;-78
2024/02/11 10:26:09;;;;;;;2.03;0.87;;;7.90;99.90;;;;;;4937805;29;20451;-78
2024/02/11 10:28:37;;;;;;;1.63;0.80;;;8.00;99.90;;;;;;4937573;29;20865;-78
2024/02/11 10:31:04;;;;;;;2.03;0.97;;;8.00;99.90;;;;;;4937392;29;20953;-78
2024/02/11 10:33:32;;;;;;;0.60;0.50;;;8.00;99.90;;;;;;4936748;29;20514;-77
2024/02/11 10:36:01;;;;;;;0.80;0.80;;;8.20;99.90;;;;;;4937054;29;20454;-78
2024/02/11 10:38:30;;;;;;;3.10;0.80;;;8.40;99.90;;;;;;4937429;29;20451;-78
2024/02/11 10:40:58;;;;;;;4.50;2.00;;;8.70;99.90;;;;;;4937399;29;20482;-78
2024/02/11 10:43:26;;;;;;;1.00;0.70;;;9.00;99.90;;;;;;4936747;29;20945;-78
2024/02/11 10:45:53;;;;;;;3.37;1.57;;;9.10;99.90;;;;;;4937204;29;20514;-78
2024/02/11 10:48:21;;;;;;;1.03;0.60;;;9.30;99.90;;;;;;4936440;29;20940;-78
2024/02/11 10:50:54;;;;;;;0.70;0.70;;;9.20;99.90;;;;;;4937076;29;20475;-78
2024/02/11 10:53:24;;;;;;;1.80;0.50;;;9.00;99.90;;;;;;4937569;29;20795;-78
2024/02/11 10:55:54;;;;;;;2.50;0.80;;;8.80;99.90;;;;;;4937703;29;20431;-78
2024/02/11 10:58:28;;;;;;;0.60;0.60;;;8.80;99.90;;;;;;4938413;29;20454;-78
2024/02/11 11:00:57;;;;;;;1.27;0.70;;;8.80;99.90;;;;;;4938186;29;20811;-78
2024/02/11 11:03:28;;;;;;;1.60;0.97;;;8.70;99.90;;;;;;4937512;29;20447;-78
2024/02/11 11:05:57;;;;;;;1.00;0.70;;;8.70;99.90;;;;;;4938124;29;20976;-79
2024/02/11 11:08:24;;;;;;;0.70;0.70;;;8.60;99.90;;;;;;4938627;29;20458;-78
2024/02/11 11:10:52;;;;;;;2.10;0.60;;;8.50;99.90;;;;;;4937493;29;20497;-78
2024/02/11 11:13:24;;;;;;;1.40;0.90;;;8.60;99.90;;;;;;4937865;29;20451;-78
2024/02/11 11:15:52;;;;;;;0.70;0.70;;;8.80;99.90;;;;;;4937837;29;20428;-78
2024/02/11 11:18:23;;;;;;;0.57;0.57;;;8.80;99.90;;;;;;4937744;29;20458;-78
2024/02/11 11:20:52;;;;;;;0.73;0.73;;;8.80;99.90;;;;;;4937597;29;20502;-78
2024/02/11 11:23:20;;;;;;;4.03;1.17;;;8.80;99.90;;;;;;4937233;29;20818;-78
2024/02/11 11:25:53;;;;;;;0.60;0.60;;;8.80;99.90;;;;;;4936952;29;20542;-78
2024/02/11 11:28:21;;;;;;;9.03;0.60;;;8.80;99.90;;;;;;4937715;29;20420;-79
2024/02/11 11:30:48;;;;;;;0.90;0.80;;;8.90;99.90;;;;;;4937702;29;20458;-78
2024/02/11 11:33:14;;;;;;;1.10;0.50;;;9.00;99.90;;;;;;4938207;29;20462;-78
2024/02/11 11:35:41;;;;;;;0.60;0.40;;;9.00;99.90;;;;;;4938035;29;20458;-78
2024/02/11 11:38:08;;;;;;;0.80;0.80;;;9.00;99.90;;;;;;4937954;29;20810;-78
2024/02/11 11:40:36;;;;;;;2.53;0.70;;;9.20;99.90;;;;;;4937867;29;20546;-78
2024/02/11 11:43:13;;;;;;;0.73;0.63;;;9.30;99.90;;;;;;4937269;29;20937;-78
2024/02/11 11:45:55;;;;;;;0.70;0.70;;;9.30;99.90;;;;;;4938057;29;20435;-78
2024/02/11 11:48:22;;;;;;;2.97;1.20;;;9.30;99.90;;;;;;4937593;29;20459;-78
2024/02/11 11:50:54;;;;;;;1.90;0.73;;;9.30;99.90;;;;;;4937625;29;20470;-78
2024/02/11 11:53:21;;;;;;;1.23;0.83;;;9.50;99.90;;;;;;4937560;29;20834;-78
2024/02/11 11:55:51;;;;;;;0.93;0.70;;;9.60;99.90;;;;;;4937131;29;20452;-78
2024/02/11 11:58:23;;;;;;;0.77;0.60;;;9.80;99.90;;;;;;4937343;29;20867;-78
2024/02/11 12:01:02;;;;;;;0.60;0.60;;;10.00;99.90;;;;;;4936421;29;20906;-78
2024/02/11 12:03:29;;;;;;;0.50;0.50;;;10.20;99.90;;;;;;4935954;29;20450;-78
2024/02/11 12:05:56;;;;;;;0.70;0.70;;;10.40;99.90;;;;;;4936307;29;20447;-78
2024/02/11 12:08:25;;;;;;;0.50;0.50;;;10.40;99.90;;;;;;4936782;29;20451;-79
2024/02/11 12:10:56;;;;;;;0.73;0.50;;;10.50;99.90;;;;;;4940453;29;20498;-77
2024/02/11 12:13:24;;;;;;;0.60;0.60;;;10.60;99.90;;;;;;4944408;29;20444;-78
2024/02/11 12:15:51;;;;;;;1.90;0.60;;;10.60;99.90;;;;;;4939686;29;20447;-78
2024/02/11 12:18:19;;;;;;;0.70;0.70;;;10.60;99.90;;;;;;4940286;29;20447;-78
2024/02/11 12:20:48;;;;;;;1.20;0.60;;;10.60;99.90;;;;;;4942149;29;20523;-78
2024/02/11 12:23:16;;;;;;;0.83;0.60;;;10.70;99.90;;;;;;4942091;29;20447;-78
2024/02/11 12:25:43;;;;;;;0.40;0.40;;;10.60;99.90;;;;;;4941699;29;20505;-78
2024/02/11 12:28:10;;;;;;;0.70;0.60;;;10.60;99.90;;;;;;4942099;29;20439;-78
2024/02/11 12:30:38;;;;;;;1.00;0.60;;;10.50;99.90;;;;;;4941969;29;20497;-78
2024/02/11 12:33:06;;;;;;;0.40;0.40;;;10.40;99.90;;;;;;4942390;29;20484;-78
2024/02/11 12:35:35;;;;;;;0.97;0.43;;;10.20;99.90;;;;;;4941795;29;20455;-78
2024/02/11 12:38:03;;;;;;;1.20;0.50;;;10.00;99.90;;;;;;4941410;29;20451;-78
2024/02/11 12:40:30;;;;;;;0.60;0.40;;;9.80;99.90;;;;;;4940964;29;20989;-78
2024/02/11 12:42:58;;;;;;;2.60;0.50;;;9.70;99.90;;;;;;4941032;29;20447;-78
2024/02/11 12:45:25;;;;;;;0.67;0.67;;;9.50;99.90;;;;;;4941487;29;20447;-78
2024/02/11 12:47:52;;;;;;;2.20;0.60;;;9.50;99.90;;;;;;4941523;29;20462;-78
2024/02/11 12:50:24;;;;;;;0.87;0.77;;;9.40;99.90;;;;;;4941266;29;21023;-78
2024/02/11 12:52:52;;;;;;;0.53;0.50;;;9.30;99.90;;;;;;4940925;29;21009;-78
2024/02/11 12:55:19;;;;;;;2.73;0.77;;;9.30;99.90;;;;;;4941121;29;20816;-78
2024/02/11 12:57:46;;;;;;;0.40;0.40;;;9.20;99.90;;;;;;4941021;29;20773;-78
2024/02/11 13:00:15;;;;;;;1.00;0.70;;;9.30;99.90;;;;;;4941089;29;20980;-78